Time;durP1;ratioP1;P1;durP2;ratioP2;P2;SDS_P1;SDS_P2;PMS_P1;PMS_P2;Temp;Humidity;BMP_temperature;BMP_pressure;BME280_temperature;BME280_humidity;BME280_pressure;Samples;Min_cycle;Max_cycle;Signal;HPM_P1;HPM_P2
2024/01/05 00:01:07;;;;;;;14.23;3.33;;;8.80;99.90;;;;;;4993008;28;20041;-76
2024/01/05 00:03:32;;;;;;;17.20;3.65;;;8.90;99.90;;;;;;4992234;28;20034;-76
2024/01/05 00:05:58;;;;;;;15.55;3.88;;;8.90;99.90;;;;;;4975659;28;20066;-76
2024/01/05 00:08:23;;;;;;;16.23;4.30;;;8.90;99.90;;;;;;4992004;28;20066;-76
2024/01/05 00:10:49;;;;;;;20.40;4.28;;;8.90;99.90;;;;;;4993058;28;20038;-76
2024/01/05 00:13:15;;;;;;;18.92;3.90;;;8.90;99.90;;;;;;4992702;28;20441;-76
2024/01/05 00:15:40;;;;;;;13.60;3.85;;;8.90;99.90;;;;;;4991969;28;20038;-77
2024/01/05 00:18:06;;;;;;;13.75;3.90;;;9.00;99.90;;;;;;4991597;28;20050;-76
2024/01/05 00:20:32;;;;;;;17.88;5.20;;;9.00;99.90;;;;;;4993409;28;20031;-77
2024/01/05 00:22:58;;;;;;;15.63;4.35;;;8.90;99.90;;;;;;4992741;28;20046;-76
2024/01/05 00:25:23;;;;;;;18.38;5.10;;;8.90;99.90;;;;;;4992744;28;20453;-77
2024/01/05 00:27:55;;;;;;;20.48;4.70;;;8.90;99.90;;;;;;4991708;28;20141;-76
2024/01/05 00:30:21;;;;;;;18.92;5.53;;;8.90;99.90;;;;;;4992585;28;20031;-76
2024/01/05 00:32:46;;;;;;;21.52;6.20;;;8.90;99.90;;;;;;4991715;28;20058;-77
2024/01/05 00:35:12;;;;;;;17.77;5.22;;;8.90;99.90;;;;;;4993120;28;20046;-76
2024/01/05 00:37:38;;;;;;;15.38;5.13;;;8.90;99.90;;;;;;4992679;28;20046;-77
2024/01/05 00:40:06;;;;;;;22.45;6.43;;;9.00;99.90;;;;;;4992104;28;20107;-77
2024/01/05 00:42:31;;;;;;;15.82;6.45;;;8.90;99.90;;;;;;4991661;28;20038;-76
2024/01/05 00:44:57;;;;;;;20.50;6.40;;;8.90;99.90;;;;;;4992245;28;20026;-77
2024/01/05 00:47:23;;;;;;;14.82;5.68;;;8.90;99.90;;;;;;4992764;28;20045;-76
2024/01/05 00:49:48;;;;;;;22.27;6.95;;;8.90;99.90;;;;;;4992675;28;20030;-77
2024/01/05 00:52:14;;;;;;;19.17;6.57;;;8.90;99.90;;;;;;4992720;28;20039;-76
2024/01/05 00:54:40;;;;;;;19.67;5.75;;;8.90;99.90;;;;;;4990921;28;20121;-77
2024/01/05 00:57:06;;;;;;;18.00;5.35;;;8.90;99.90;;;;;;4992828;28;20218;-76
2024/01/05 00:59:31;;;;;;;19.13;5.53;;;9.00;99.90;;;;;;4989986;28;20061;-77
2024/01/05 01:01:57;;;;;;;16.83;5.28;;;9.00;99.90;;;;;;4992505;28;20097;-76
2024/01/05 01:04:23;;;;;;;14.73;5.15;;;9.00;99.90;;;;;;4991378;28;20452;-76
2024/01/05 01:06:49;;;;;;;20.92;6.30;;;9.00;99.90;;;;;;4992554;28;20035;-77
2024/01/05 01:09:15;;;;;;;14.15;5.15;;;9.00;99.90;;;;;;4992197;28;20030;-77
2024/01/05 01:11:40;;;;;;;20.35;5.28;;;9.00;99.90;;;;;;4992133;28;20050;-77
2024/01/05 01:14:06;;;;;;;17.83;5.05;;;9.00;99.90;;;;;;4996499;28;20085;-77
2024/01/05 01:16:32;;;;;;;19.15;5.25;;;9.10;99.90;;;;;;4996385;28;20034;-77
2024/01/05 01:18:59;;;;;;;15.43;4.53;;;9.10;99.90;;;;;;4996581;28;20475;-76
2024/01/05 01:21:25;;;;;;;15.57;4.90;;;9.20;99.90;;;;;;4994098;28;20047;-78
2024/01/05 01:23:51;;;;;;;16.73;4.53;;;9.20;99.90;;;;;;4979859;28;20049;-78
2024/01/05 01:26:17;;;;;;;17.75;5.30;;;9.20;99.90;;;;;;4997322;28;20037;-79
2024/01/05 01:28:43;;;;;;;18.90;5.32;;;9.10;99.90;;;;;;4996373;28;20030;-79
2024/01/05 01:31:08;;;;;;;18.23;4.72;;;9.10;99.90;;;;;;4996875;28;20034;-78
2024/01/05 01:33:34;;;;;;;23.20;5.82;;;9.10;99.90;;;;;;4997763;28;20457;-78
2024/01/05 01:36:00;;;;;;;18.88;5.45;;;9.20;99.90;;;;;;4996794;28;20042;-77
2024/01/05 01:38:26;;;;;;;15.07;4.60;;;9.20;99.90;;;;;;4996848;28;20038;-76
2024/01/05 01:40:54;;;;;;;19.52;4.75;;;9.20;99.90;;;;;;4997880;28;20066;-76
2024/01/05 01:43:24;;;;;;;14.80;4.90;;;9.20;99.90;;;;;;4996013;28;20113;-79
2024/01/05 01:45:51;;;;;;;17.10;5.47;;;9.30;99.90;;;;;;4995486;28;20025;-79
2024/01/05 01:48:19;;;;;;;15.48;5.10;;;9.30;99.90;;;;;;4996495;28;20041;-79
2024/01/05 01:50:45;;;;;;;21.35;5.63;;;9.30;99.90;;;;;;4994938;28;20091;-78
2024/01/05 01:53:13;;;;;;;19.15;6.32;;;9.20;99.90;;;;;;4996127;28;20037;-78
2024/01/05 01:55:41;;;;;;;20.15;5.13;;;9.10;99.90;;;;;;4996416;28;20034;-78
2024/01/05 01:58:07;;;;;;;19.40;5.38;;;9.10;99.90;;;;;;4996038;28;20046;-78
2024/01/05 02:00:34;;;;;;;20.65;5.07;;;9.10;99.90;;;;;;4995094;28;20027;-79
2024/01/05 02:03:01;;;;;;;18.63;5.65;;;9.10;99.90;;;;;;4996308;28;20042;-79
2024/01/05 02:05:28;;;;;;;14.43;4.95;;;9.10;99.90;;;;;;4995923;28;20030;-78
2024/01/05 02:07:55;;;;;;;18.13;5.18;;;9.10;99.90;;;;;;4996155;28;20074;-78
2024/01/05 02:10:21;;;;;;;28.80;6.80;;;9.10;99.90;;;;;;4994456;28;20077;-79
2024/01/05 02:12:47;;;;;;;18.13;5.75;;;9.10;99.90;;;;;;4995195;28;20465;-78
2024/01/05 02:15:13;;;;;;;18.45;4.45;;;9.20;99.90;;;;;;4994808;28;20030;-77
2024/01/05 02:17:38;;;;;;;14.38;3.65;;;9.20;99.90;;;;;;4996120;28;20034;-79
2024/01/05 02:20:05;;;;;;;15.77;4.53;;;9.20;99.90;;;;;;4995909;28;20040;-78
2024/01/05 02:22:34;;;;;;;16.90;3.20;;;9.30;99.90;;;;;;4978540;28;20038;-78
2024/01/05 02:25:00;;;;;;;17.70;3.70;;;9.30;99.90;;;;;;4995295;28;20121;-78
2024/01/05 02:27:26;;;;;;;14.35;3.25;;;9.20;99.90;;;;;;4995500;28;20042;-78
2024/01/05 02:29:52;;;;;;;18.00;3.15;;;9.20;99.90;;;;;;4995671;28;20476;-81
2024/01/05 02:32:18;;;;;;;11.65;2.58;;;9.20;99.90;;;;;;4994772;28;20052;-82
2024/01/05 02:34:44;;;;;;;12.30;2.35;;;9.30;99.90;;;;;;4978627;28;20031;-82
2024/01/05 02:37:10;;;;;;;16.13;3.13;;;9.30;99.90;;;;;;4978650;28;20433;-77
2024/01/05 02:39:36;;;;;;;16.85;2.92;;;9.30;99.90;;;;;;4977910;28;20469;-78
2024/01/05 02:42:02;;;;;;;13.98;2.72;;;9.30;99.90;;;;;;4995393;28;20030;-77
2024/01/05 02:44:27;;;;;;;13.70;2.15;;;9.30;99.90;;;;;;4995695;28;20050;-78
2024/01/05 02:46:53;;;;;;;12.63;2.08;;;9.30;99.90;;;;;;4993558;28;20041;-78
2024/01/05 02:49:18;;;;;;;18.48;2.35;;;9.30;99.90;;;;;;4993589;28;20113;-79
2024/01/05 02:51:44;;;;;;;9.93;1.65;;;9.30;99.90;;;;;;4993827;28;20031;-80
2024/01/05 02:54:10;;;;;;;15.50;2.85;;;9.40;99.90;;;;;;4993615;28;20426;-79
2024/01/05 02:56:36;;;;;;;13.18;1.80;;;9.40;99.90;;;;;;4993662;28;20409;-79
2024/01/05 02:59:04;;;;;;;11.05;2.08;;;9.40;99.90;;;;;;4993870;28;20034;-79
2024/01/05 03:01:30;;;;;;;14.77;1.90;;;9.40;99.90;;;;;;4993726;28;20023;-79
2024/01/05 03:03:57;;;;;;;15.90;2.17;;;9.40;99.90;;;;;;4995137;28;20420;-78
2024/01/05 03:06:23;;;;;;;16.58;2.30;;;9.40;99.90;;;;;;4994888;28;20026;-79
2024/01/05 03:08:49;;;;;;;14.57;2.10;;;9.40;99.90;;;;;;4994663;28;20045;-79
2024/01/05 03:11:15;;;;;;;13.57;1.88;;;9.40;99.90;;;;;;4994727;28;20046;-78
2024/01/05 03:13:41;;;;;;;11.13;2.10;;;9.30;99.90;;;;;;4994946;28;20026;-79
2024/01/05 03:16:07;;;;;;;15.05;2.92;;;9.40;99.90;;;;;;4977482;28;20040;-79
2024/01/05 03:18:33;;;;;;;12.75;2.17;;;9.30;99.90;;;;;;4993527;28;20469;-79
2024/01/05 03:20:59;;;;;;;13.35;1.83;;;9.30;99.90;;;;;;4993293;28;20088;-79
2024/01/05 03:23:25;;;;;;;12.68;1.85;;;9.30;99.90;;;;;;4993875;28;20026;-78
2024/01/05 03:25:50;;;;;;;9.95;1.70;;;9.30;99.90;;;;;;4993464;28;20495;-78
2024/01/05 03:28:17;;;;;;;12.43;1.98;;;9.30;99.90;;;;;;4993209;28;20034;-79
2024/01/05 03:30:43;;;;;;;15.38;2.33;;;9.30;99.90;;;;;;4994925;28;20033;-79
2024/01/05 03:33:09;;;;;;;14.82;2.17;;;9.30;99.90;;;;;;4993937;28;20026;-79
2024/01/05 03:35:38;;;;;;;10.43;1.80;;;9.30;99.90;;;;;;4976296;28;20062;-79
2024/01/05 03:38:04;;;;;;;13.43;1.65;;;9.30;99.90;;;;;;4993175;28;20042;-79
2024/01/05 03:40:29;;;;;;;13.27;2.30;;;9.30;99.90;;;;;;4994431;28;20033;-78
2024/01/05 03:42:56;;;;;;;10.15;1.70;;;9.30;99.90;;;;;;4992955;28;20030;-79
2024/01/05 03:45:21;;;;;;;10.73;2.45;;;9.30;99.90;;;;;;4992704;28;20030;-78
2024/01/05 03:47:47;;;;;;;16.40;1.92;;;9.40;99.90;;;;;;4992718;28;20173;-79
2024/01/05 03:50:13;;;;;;;15.20;1.95;;;9.40;99.90;;;;;;4994133;28;20068;-78
2024/01/05 03:52:39;;;;;;;14.50;1.70;;;9.40;99.90;;;;;;4994182;28;20453;-79
2024/01/05 03:55:04;;;;;;;9.10;1.42;;;9.40;99.90;;;;;;4993809;28;20057;-79
2024/01/05 03:57:30;;;;;;;11.65;1.60;;;9.40;99.90;;;;;;4992498;28;20038;-78
2024/01/05 03:59:56;;;;;;;14.95;1.50;;;9.40;99.90;;;;;;4993316;28;20072;-78
2024/01/05 04:02:22;;;;;;;10.57;1.40;;;9.40;99.90;;;;;;4993960;28;20412;-78
2024/01/05 04:04:47;;;;;;;11.00;1.58;;;9.40;99.90;;;;;;4993677;28;20480;-78
2024/01/05 04:07:13;;;;;;;10.30;1.65;;;9.40;99.90;;;;;;4994956;28;20038;-78
2024/01/05 04:09:39;;;;;;;11.05;1.77;;;9.40;99.90;;;;;;4993673;28;20569;-77
2024/01/05 04:12:05;;;;;;;9.45;1.90;;;9.40;99.90;;;;;;4995780;28;20522;-78
2024/01/05 04:14:30;;;;;;;8.68;1.70;;;9.40;99.90;;;;;;4994438;28;20480;-77
2024/01/05 04:16:56;;;;;;;11.80;2.08;;;9.40;99.90;;;;;;4992729;28;20112;-78
2024/01/05 04:19:22;;;;;;;8.90;1.52;;;9.40;99.90;;;;;;4993820;28;20023;-77
2024/01/05 04:21:48;;;;;;;13.98;2.08;;;9.30;99.90;;;;;;4994307;28;20022;-78
2024/01/05 04:24:14;;;;;;;11.65;1.70;;;9.30;99.90;;;;;;4993697;28;20076;-78
2024/01/05 04:26:40;;;;;;;10.52;1.67;;;9.40;99.90;;;;;;4993736;28;20026;-78
2024/01/05 04:29:05;;;;;;;13.13;1.77;;;9.40;99.90;;;;;;4992280;28;20535;-77
2024/01/05 04:31:31;;;;;;;12.25;1.67;;;9.40;99.90;;;;;;4976068;28;20042;-78
2024/01/05 04:33:57;;;;;;;9.55;1.60;;;9.50;99.90;;;;;;4992468;28;20380;-78
2024/01/05 04:36:23;;;;;;;11.15;1.50;;;9.40;99.90;;;;;;4993261;28;20047;-78
2024/01/05 04:38:48;;;;;;;11.10;1.35;;;9.40;99.90;;;;;;4993212;28;20034;-77
2024/01/05 04:41:16;;;;;;;12.05;1.50;;;9.50;99.90;;;;;;4993787;28;20038;-79
2024/01/05 04:43:45;;;;;;;12.52;1.67;;;9.50;99.90;;;;;;4993238;28;20045;-79
2024/01/05 04:46:10;;;;;;;7.18;1.13;;;9.40;99.90;;;;;;4992861;28;20038;-80
2024/01/05 04:48:36;;;;;;;4.50;1.20;;;9.40;99.90;;;;;;4991899;28;20537;-77
2024/01/05 04:51:02;;;;;;;6.80;1.40;;;9.40;99.90;;;;;;4993187;28;20495;-78
2024/01/05 04:53:28;;;;;;;7.95;1.70;;;9.40;99.90;;;;;;4993154;28;20476;-78
2024/01/05 04:55:54;;;;;;;13.68;1.95;;;9.40;99.90;;;;;;4992034;28;20075;-78
2024/01/05 04:58:20;;;;;;;19.63;2.70;;;9.30;99.90;;;;;;4993083;28;20393;-78
2024/01/05 05:00:46;;;;;;;11.05;1.33;;;9.40;99.90;;;;;;4992025;28;20476;-79
2024/01/05 05:03:13;;;;;;;14.50;2.00;;;9.30;99.90;;;;;;4992303;28;20039;-79
2024/01/05 05:05:39;;;;;;;10.18;1.35;;;9.40;99.90;;;;;;4976556;28;20055;-79
2024/01/05 05:08:06;;;;;;;6.25;1.05;;;9.40;99.90;;;;;;4992795;28;20465;-79
2024/01/05 05:10:32;;;;;;;11.07;1.63;;;9.40;99.90;;;;;;4991818;28;20061;-79
2024/01/05 05:12:58;;;;;;;8.90;1.55;;;9.40;99.90;;;;;;4991895;28;20373;-79
2024/01/05 05:15:24;;;;;;;13.32;1.20;;;9.40;99.90;;;;;;4992792;28;20384;-78
2024/01/05 05:17:51;;;;;;;9.98;1.40;;;9.40;99.90;;;;;;4991530;28;20507;-79
2024/01/05 05:20:17;;;;;;;10.73;1.90;;;9.40;99.90;;;;;;4975760;28;20129;-79
2024/01/05 05:22:42;;;;;;;5.55;1.08;;;9.40;99.90;;;;;;4975586;28;20129;-78
2024/01/05 05:25:08;;;;;;;5.47;1.10;;;9.40;99.90;;;;;;4975567;28;20030;-77
2024/01/05 05:27:34;;;;;;;7.47;1.17;;;9.40;99.90;;;;;;4992055;28;20041;-79
2024/01/05 05:30:03;;;;;;;7.25;1.00;;;9.40;99.90;;;;;;4992221;28;20108;-77
2024/01/05 05:32:28;;;;;;;6.90;0.93;;;9.40;99.90;;;;;;4991648;28;20030;-79
2024/01/05 05:34:55;;;;;;;7.65;0.93;;;9.40;99.90;;;;;;4991492;28;20370;-79
2024/01/05 05:37:20;;;;;;;10.00;1.58;;;9.30;99.90;;;;;;4975416;28;20465;-79
2024/01/05 05:39:46;;;;;;;7.82;1.33;;;9.30;99.90;;;;;;4992641;28;20030;-79
2024/01/05 05:42:12;;;;;;;6.95;0.68;;;9.40;99.90;;;;;;4991527;28;20469;-79
2024/01/05 05:44:37;;;;;;;10.80;1.23;;;9.40;99.90;;;;;;4991566;28;20491;-80
2024/01/05 05:47:03;;;;;;;6.47;1.00;;;9.40;99.90;;;;;;4975729;28;20447;-79
2024/01/05 05:49:29;;;;;;;8.90;1.08;;;9.40;99.90;;;;;;4991427;28;20034;-78
2024/01/05 05:51:54;;;;;;;10.18;1.65;;;9.50;99.90;;;;;;4992766;28;20027;-79
2024/01/05 05:54:20;;;;;;;7.78;1.50;;;9.50;99.90;;;;;;4991309;28;20062;-80
2024/01/05 05:56:46;;;;;;;9.00;1.17;;;9.40;99.90;;;;;;4974809;28;20034;-78
2024/01/05 05:59:12;;;;;;;7.07;1.08;;;9.40;99.90;;;;;;4993333;28;20045;-78
2024/01/05 06:01:38;;;;;;;8.38;1.00;;;9.50;99.90;;;;;;4996103;28;20030;-77
2024/01/05 06:04:05;;;;;;;7.47;0.80;;;9.40;99.90;;;;;;4978280;28;20031;-78
2024/01/05 06:06:31;;;;;;;7.55;1.02;;;9.40;99.90;;;;;;4995104;28;20026;-79
2024/01/05 06:08:57;;;;;;;6.93;1.08;;;9.40;99.90;;;;;;4994985;28;20039;-79
2024/01/05 06:11:26;;;;;;;6.63;1.00;;;9.40;99.90;;;;;;4978155;28;20051;-79
2024/01/05 06:13:52;;;;;;;12.35;1.42;;;9.40;99.90;;;;;;4994841;28;20495;-79
2024/01/05 06:16:17;;;;;;;10.45;0.82;;;9.50;99.90;;;;;;4996201;28;20022;-79
2024/01/05 06:18:44;;;;;;;10.95;1.60;;;9.50;99.90;;;;;;4995440;28;20042;-79
2024/01/05 06:21:11;;;;;;;9.57;1.35;;;9.50;99.90;;;;;;4994432;28;20108;-79
2024/01/05 06:23:37;;;;;;;6.63;1.30;;;9.40;99.90;;;;;;4994380;28;20453;-79
2024/01/05 06:26:02;;;;;;;11.15;1.10;;;9.40;99.90;;;;;;4994314;28;20026;-80
2024/01/05 06:28:28;;;;;;;7.68;0.90;;;9.40;99.90;;;;;;4996000;28;20439;-78
2024/01/05 06:30:54;;;;;;;6.07;1.08;;;9.40;99.90;;;;;;4995677;28;20030;-77
2024/01/05 06:33:20;;;;;;;4.15;0.60;;;9.40;99.90;;;;;;4994492;28;20035;-79
2024/01/05 06:35:45;;;;;;;9.43;0.90;;;9.40;99.90;;;;;;4997819;28;20380;-82
2024/01/05 06:38:11;;;;;;;11.65;1.10;;;9.40;99.90;;;;;;4994573;28;20484;-81
2024/01/05 06:40:37;;;;;;;7.88;1.02;;;9.30;99.90;;;;;;4998978;28;20030;-81
2024/01/05 06:43:03;;;;;;;9.75;1.20;;;9.40;99.90;;;;;;4985025;28;20117;-79
2024/01/05 06:45:28;;;;;;;6.22;0.77;;;9.40;99.90;;;;;;4996508;28;20066;-76
2024/01/05 06:47:54;;;;;;;10.82;1.20;;;9.30;99.90;;;;;;4996115;28;20449;-76
2024/01/05 06:50:20;;;;;;;5.90;0.70;;;9.40;99.90;;;;;;4994918;28;20401;-77
2024/01/05 06:52:45;;;;;;;10.27;0.80;;;9.30;99.90;;;;;;4995288;28;20183;-77
2024/01/05 06:55:11;;;;;;;8.55;1.08;;;9.30;99.90;;;;;;4993819;28;20035;-77
2024/01/05 06:57:37;;;;;;;8.13;0.80;;;9.30;99.90;;;;;;4977970;28;20038;-78
2024/01/05 07:00:04;;;;;;;5.57;0.80;;;9.40;99.90;;;;;;4994041;28;20596;-77
2024/01/05 07:02:29;;;;;;;5.68;0.60;;;9.40;99.90;;;;;;4995334;28;20041;-76
2024/01/05 07:04:55;;;;;;;11.88;1.35;;;9.40;99.90;;;;;;4995454;28;20457;-77
2024/01/05 07:07:21;;;;;;;6.68;0.85;;;9.40;99.90;;;;;;4994433;28;20089;-76
2024/01/05 07:09:46;;;;;;;5.82;0.75;;;9.40;99.90;;;;;;4992806;28;20070;-77
2024/01/05 07:12:12;;;;;;;4.43;0.57;;;9.40;99.90;;;;;;4995590;28;20061;-77
2024/01/05 07:14:38;;;;;;;7.63;0.50;;;9.40;99.90;;;;;;4993694;28;20034;-76
2024/01/05 07:17:04;;;;;;;6.13;1.00;;;9.40;99.90;;;;;;4995276;28;20042;-77
2024/01/05 07:19:29;;;;;;;5.20;0.73;;;9.40;99.90;;;;;;4994001;28;20536;-76
2024/01/05 07:21:55;;;;;;;3.28;0.60;;;9.50;99.90;;;;;;4995586;28;20026;-76
2024/01/05 07:24:20;;;;;;;5.88;0.70;;;9.50;99.90;;;;;;4993959;28;20058;-75
2024/01/05 07:26:46;;;;;;;4.40;0.50;;;9.40;99.90;;;;;;4994611;28;20035;-76
2024/01/05 07:29:12;;;;;;;2.38;0.32;;;9.50;99.90;;;;;;4993621;28;20447;-78
2024/01/05 07:31:38;;;;;;;8.13;0.70;;;9.50;99.90;;;;;;4993697;28;20076;-75
2024/01/05 07:34:03;;;;;;;4.50;0.57;;;9.50;99.90;;;;;;4993269;28;20396;-74
2024/01/05 07:36:29;;;;;;;6.40;0.82;;;9.50;99.90;;;;;;4993391;28;20034;-75
2024/01/05 07:38:58;;;;;;;5.28;0.68;;;9.50;99.90;;;;;;4994188;28;20073;-75
2024/01/05 07:41:26;;;;;;;5.57;0.80;;;9.50;99.90;;;;;;4994360;28;20026;-75
2024/01/05 07:43:52;;;;;;;10.18;0.77;;;9.60;99.90;;;;;;4993381;28;20026;-74
2024/01/05 07:46:19;;;;;;;6.47;0.57;;;9.60;99.90;;;;;;4993660;28;20545;-76
2024/01/05 07:48:46;;;;;;;6.43;0.90;;;9.60;99.90;;;;;;4994214;28;20061;-75
2024/01/05 07:51:13;;;;;;;6.50;0.55;;;9.60;99.90;;;;;;4994106;28;20034;-74
2024/01/05 07:53:38;;;;;;;5.25;0.45;;;9.60;99.90;;;;;;4994363;28;20105;-74
2024/01/05 07:56:05;;;;;;;9.20;0.88;;;9.60;99.90;;;;;;4994259;28;20066;-75
2024/01/05 07:58:31;;;;;;;5.32;0.32;;;9.60;99.90;;;;;;4992831;28;20042;-81
2024/01/05 08:00:57;;;;;;;5.38;0.30;;;9.60;99.90;;;;;;4994055;28;20114;-79
2024/01/05 08:03:23;;;;;;;3.38;0.40;;;9.60;99.90;;;;;;4976745;28;20054;-81
2024/01/05 08:05:49;;;;;;;6.28;0.50;;;9.50;99.90;;;;;;4994159;28;20085;-81
2024/01/05 08:08:15;;;;;;;2.67;0.10;;;9.50;99.90;;;;;;4976660;28;20034;-81
2024/01/05 08:10:40;;;;;;;1.45;0.00;;;9.40;99.90;;;;;;4993801;28;20067;-81
2024/01/05 08:13:06;;;;;;;0.80;0.10;;;9.30;99.90;;;;;;4977563;28;20396;-78
2024/01/05 08:15:32;;;;;;;0.93;0.10;;;9.20;99.90;;;;;;4977068;28;20365;-82
2024/01/05 08:17:58;;;;;;;0.80;0.00;;;9.20;99.90;;;;;;4993491;28;20374;-81
2024/01/05 08:20:24;;;;;;;0.98;0.20;;;9.20;99.90;;;;;;4992600;28;20125;-82
2024/01/05 08:22:50;;;;;;;1.65;0.10;;;9.20;99.90;;;;;;4992234;28;20449;-81
2024/01/05 08:25:16;;;;;;;0.43;0.00;;;9.20;99.90;;;;;;4976364;28;20030;-82
2024/01/05 08:27:42;;;;;;;0.77;0.10;;;9.20;99.90;;;;;;4993736;28;20105;-82
2024/01/05 08:30:12;;;;;;;1.35;0.22;;;9.20;99.90;;;;;;4992551;28;20035;-75
2024/01/05 08:32:38;;;;;;;0.63;0.00;;;9.10;99.90;;;;;;4992326;28;20045;-74
2024/01/05 08:35:07;;;;;;;0.93;0.00;;;9.10;99.90;;;;;;4993027;28;20160;-74
2024/01/05 08:37:34;;;;;;;0.75;0.10;;;9.10;99.90;;;;;;4993334;28;20461;-74
2024/01/05 08:40:00;;;;;;;2.00;0.00;;;9.10;99.90;;;;;;4993315;28;20120;-77
2024/01/05 08:42:26;;;;;;;0.75;0.00;;;9.10;99.90;;;;;;4992197;28;20120;-75
2024/01/05 08:44:51;;;;;;;0.57;0.08;;;9.10;99.90;;;;;;4991886;28;20106;-74
2024/01/05 08:47:17;;;;;;;0.85;0.05;;;9.10;99.90;;;;;;4975811;28;20073;-76
2024/01/05 08:49:43;;;;;;;0.68;0.00;;;9.10;99.90;;;;;;4993362;28;20378;-75
2024/01/05 08:52:09;;;;;;;0.52;0.10;;;9.00;99.90;;;;;;4993009;28;20142;-76
2024/01/05 08:54:34;;;;;;;1.33;0.00;;;9.00;99.90;;;;;;4976185;28;20030;-76
2024/01/05 08:57:00;;;;;;;0.80;0.00;;;8.90;99.90;;;;;;4991953;28;20031;-77
2024/01/05 08:59:26;;;;;;;1.00;0.00;;;8.90;99.90;;;;;;4993494;28;20491;-75
2024/01/05 09:01:51;;;;;;;0.80;0.10;;;8.80;99.90;;;;;;4993108;28;20113;-76
2024/01/05 09:04:17;;;;;;;0.28;0.00;;;8.70;99.90;;;;;;4992990;28;20038;-78
2024/01/05 09:06:43;;;;;;;1.13;0.10;;;8.70;99.90;;;;;;4993345;28;20045;-78
2024/01/05 09:09:10;;;;;;;2.38;0.00;;;8.80;99.90;;;;;;4993012;28;20042;-75
2024/01/05 09:11:36;;;;;;;0.35;0.00;;;9.00;99.90;;;;;;4991986;28;20054;-76
2024/01/05 09:14:02;;;;;;;3.45;0.20;;;9.00;99.90;;;;;;4976674;28;20046;-80
2024/01/05 09:16:28;;;;;;;2.15;0.10;;;9.00;99.90;;;;;;4992307;28;20036;-76
2024/01/05 09:18:54;;;;;;;2.13;0.10;;;9.00;99.90;;;;;;4994017;28;20457;-75
2024/01/05 09:21:20;;;;;;;0.57;0.10;;;8.90;99.90;;;;;;4992515;28;20474;-76
2024/01/05 09:23:45;;;;;;;0.90;0.10;;;8.90;99.90;;;;;;4975859;28;20026;-77
2024/01/05 09:26:15;;;;;;;0.50;0.00;;;8.90;99.90;;;;;;4993165;28;20035;-78
2024/01/05 09:28:41;;;;;;;1.88;0.35;;;8.80;99.90;;;;;;4992406;28;20034;-77
2024/01/05 09:31:06;;;;;;;2.30;0.10;;;8.80;99.90;;;;;;4992661;28;20542;-75
2024/01/05 09:33:32;;;;;;;1.58;0.22;;;8.80;99.90;;;;;;4994264;28;20049;-75
2024/01/05 09:35:59;;;;;;;1.08;0.10;;;8.80;99.90;;;;;;4996985;28;20045;-76
2024/01/05 09:38:25;;;;;;;1.70;0.05;;;8.80;99.90;;;;;;4997199;28;20034;-79
2024/01/05 09:40:52;;;;;;;3.83;0.60;;;8.70;99.90;;;;;;4996721;28;20034;-81
2024/01/05 09:43:21;;;;;;;7.43;0.60;;;8.70;99.90;;;;;;4997140;28;20065;-78
2024/01/05 09:45:52;;;;;;;1.30;0.13;;;8.60;99.90;;;;;;4996948;28;20041;-77
2024/01/05 09:48:22;;;;;;;5.53;0.95;;;8.50;99.90;;;;;;4997008;28;20038;-78
2024/01/05 09:50:53;;;;;;;1.40;0.10;;;8.40;99.90;;;;;;4995516;28;20412;-77
2024/01/05 09:53:19;;;;;;;1.75;0.03;;;8.30;99.90;;;;;;4996734;28;20026;-77
2024/01/05 09:55:48;;;;;;;0.20;0.10;;;8.30;99.90;;;;;;4995106;28;20448;-76
2024/01/05 09:58:15;;;;;;;0.35;0.00;;;8.30;99.90;;;;;;4996287;28;20050;-77
2024/01/05 10:00:48;;;;;;;0.88;0.10;;;8.20;99.90;;;;;;4996247;28;20061;-76
2024/01/05 10:03:21;;;;;;;1.45;0.00;;;8.20;99.90;;;;;;4996074;28;20041;-78
2024/01/05 10:05:49;;;;;;;1.00;0.00;;;8.10;99.90;;;;;;4996627;28;20042;-78
2024/01/05 10:08:15;;;;;;;0.10;0.00;;;8.10;99.90;;;;;;4996202;28;20033;-78
2024/01/05 10:10:55;;;;;;;1.30;0.00;;;8.10;99.90;;;;;;4978305;28;20326;-77
2024/01/05 10:13:20;;;;;;;0.80;0.00;;;8.10;99.90;;;;;;4996301;28;20058;-76
2024/01/05 10:15:59;;;;;;;0.20;0.13;;;8.10;99.90;;;;;;4994656;28;20038;-79
2024/01/05 10:18:29;;;;;;;0.40;0.00;;;8.00;99.90;;;;;;4995873;28;20053;-78
2024/01/05 10:21:08;;;;;;;2.53;0.10;;;8.10;99.90;;;;;;4996171;28;20148;-76
2024/01/05 10:23:42;;;;;;;0.88;0.00;;;8.10;99.90;;;;;;4978655;28;20129;-76
2024/01/05 10:26:21;;;;;;;0.63;0.10;;;8.20;99.90;;;;;;4996374;28;20051;-75
2024/01/05 10:28:48;;;;;;;0.20;0.00;;;8.30;99.90;;;;;;4995917;28;20038;-76
2024/01/05 10:31:15;;;;;;;0.70;0.10;;;8.20;99.90;;;;;;4978706;28;20085;-75
2024/01/05 10:33:51;;;;;;;0.47;0.00;;;8.10;99.90;;;;;;4978740;28;20418;-75
2024/01/05 10:36:25;;;;;;;0.38;0.10;;;7.90;99.90;;;;;;4995585;28;20041;-75
2024/01/05 10:38:51;;;;;;;1.50;0.10;;;7.90;99.90;;;;;;4995549;28;20047;-76
2024/01/05 10:41:18;;;;;;;1.77;0.30;;;7.90;99.90;;;;;;4995499;28;20033;-74
2024/01/05 10:43:46;;;;;;;0.88;0.30;;;7.90;99.90;;;;;;4995411;28;20034;-76
2024/01/05 10:46:14;;;;;;;1.08;0.20;;;8.00;99.90;;;;;;4994476;28;20457;-76
2024/01/05 10:48:40;;;;;;;0.80;0.10;;;7.90;99.90;;;;;;4995785;28;20070;-75
2024/01/05 10:51:06;;;;;;;1.60;0.20;;;7.90;99.90;;;;;;4994206;28;20050;-75
2024/01/05 10:53:33;;;;;;;2.03;0.25;;;7.90;99.90;;;;;;4995334;28;20026;-76
2024/01/05 10:56:02;;;;;;;3.50;0.30;;;7.90;99.90;;;;;;4995178;28;20027;-77
2024/01/05 10:58:28;;;;;;;4.00;0.35;;;7.90;99.90;;;;;;4994685;28;20472;-75
2024/01/05 11:01:00;;;;;;;2.28;0.30;;;7.90;99.90;;;;;;4995157;28;20030;-76
2024/01/05 11:03:36;;;;;;;1.27;0.40;;;7.90;99.90;;;;;;4993907;28;20030;-76
2024/01/05 11:06:08;;;;;;;3.10;0.28;;;7.90;99.90;;;;;;4994557;28;20499;-84
2024/01/05 11:09:00;;;;;;;1.60;0.20;;;7.90;99.90;;;;;;4996088;28;20049;-86
2024/01/05 11:11:55;;;;;;;1.30;0.35;;;7.90;99.90;;;;;;4995892;28;20034;-85
2024/01/05 11:14:44;;;;;;;2.35;0.40;;;7.90;99.90;;;;;;4993687;28;20385;-75
2024/01/05 11:17:28;;;;;;;0.82;0.28;;;8.00;99.90;;;;;;4995169;28;20218;-78
2024/01/05 11:20:31;;;;;;;1.98;0.47;;;7.90;99.90;;;;;;4994370;28;20440;-76
2024/01/05 11:22:58;;;;;;;1.40;0.40;;;8.00;99.90;;;;;;4994587;28;20122;-76
2024/01/05 11:25:24;;;;;;;1.27;0.30;;;7.90;99.90;;;;;;4993036;28;20031;-77
2024/01/05 11:27:50;;;;;;;2.67;0.40;;;7.90;99.90;;;;;;4976587;28;20376;-76
2024/01/05 11:30:40;;;;;;;1.83;0.30;;;7.90;99.90;;;;;;4994962;28;20595;-79
2024/01/05 11:33:08;;;;;;;0.85;0.30;;;7.90;99.90;;;;;;4994759;28;20057;-78
2024/01/05 11:35:43;;;;;;;2.05;0.32;;;8.00;99.90;;;;;;4993064;28;20030;-78
2024/01/05 11:38:42;;;;;;;2.75;0.40;;;8.00;99.90;;;;;;4994885;28;20030;-78
2024/01/05 11:41:18;;;;;;;1.25;0.20;;;8.00;99.90;;;;;;4983363;28;20038;-77
2024/01/05 11:43:44;;;;;;;1.60;0.52;;;8.00;99.90;;;;;;4994496;28;20037;-78
2024/01/05 11:46:10;;;;;;;1.33;0.50;;;8.00;99.90;;;;;;4977428;28;20022;-83
2024/01/05 11:48:35;;;;;;;1.10;0.50;;;8.00;99.90;;;;;;4977933;28;20038;-78
2024/01/05 11:51:03;;;;;;;1.00;0.40;;;8.00;99.90;;;;;;4998818;28;20087;-82
2024/01/05 11:53:32;;;;;;;1.17;0.47;;;7.90;99.90;;;;;;4995180;28;20077;-75
2024/01/05 11:56:07;;;;;;;2.08;0.30;;;8.00;99.90;;;;;;4992536;28;20026;-77
2024/01/05 11:58:38;;;;;;;2.20;0.30;;;8.00;99.90;;;;;;4994625;28;20038;-75
2024/01/05 12:01:07;;;;;;;0.90;0.30;;;8.00;99.90;;;;;;4977956;28;20070;-75
2024/01/05 12:03:33;;;;;;;1.95;0.40;;;7.90;99.90;;;;;;4993769;28;20029;-74
2024/01/05 12:06:03;;;;;;;1.15;0.30;;;7.90;99.90;;;;;;4992830;28;20034;-75
2024/01/05 12:08:29;;;;;;;2.88;0.40;;;7.90;99.90;;;;;;4993463;28;20030;-75
2024/01/05 12:10:57;;;;;;;1.23;0.60;;;7.90;99.90;;;;;;4993987;28;20026;-75
2024/01/05 12:13:27;;;;;;;0.88;0.40;;;7.90;99.90;;;;;;4993607;28;20446;-75
2024/01/05 12:15:54;;;;;;;2.25;0.40;;;7.90;99.90;;;;;;4992526;28;20104;-75
2024/01/05 12:18:38;;;;;;;1.10;0.40;;;8.00;99.90;;;;;;4993644;28;20436;-74
2024/01/05 12:21:05;;;;;;;2.85;0.50;;;8.00;99.90;;;;;;4992372;28;20081;-75
2024/01/05 12:23:31;;;;;;;1.80;0.40;;;8.00;99.90;;;;;;4993136;28;20035;-76
2024/01/05 12:26:04;;;;;;;1.55;0.50;;;7.90;99.90;;;;;;4993545;28;20033;-75
2024/01/05 12:28:33;;;;;;;1.45;0.43;;;8.00;99.90;;;;;;4993624;28;20026;-75
2024/01/05 12:31:00;;;;;;;1.60;0.40;;;7.90;99.90;;;;;;4993496;28;20034;-75
2024/01/05 12:33:30;;;;;;;1.45;0.50;;;7.90;99.90;;;;;;4993644;28;20061;-76
2024/01/05 12:35:56;;;;;;;1.98;0.40;;;7.90;99.90;;;;;;4993081;28;20105;-76
2024/01/05 12:38:26;;;;;;;1.35;0.43;;;7.90;99.90;;;;;;4992110;28;20414;-76
2024/01/05 12:40:52;;;;;;;1.95;0.60;;;7.90;99.90;;;;;;4993238;28;20042;-75
2024/01/05 12:43:19;;;;;;;1.15;0.50;;;7.90;99.90;;;;;;4993010;28;20036;-76
2024/01/05 12:45:48;;;;;;;2.53;0.60;;;7.90;99.90;;;;;;4993000;28;20026;-76
2024/01/05 12:48:15;;;;;;;2.20;0.70;;;8.00;99.90;;;;;;4991807;28;20071;-74
2024/01/05 12:50:41;;;;;;;2.03;0.55;;;8.00;99.90;;;;;;4993266;28;20101;-77
2024/01/05 12:53:19;;;;;;;2.65;0.80;;;8.00;99.90;;;;;;4991820;28;20026;-79